sensor_id;sensor_type;location;lat;lon;timestamp;temperature;humidity
7014;DHT22;3547;50.774;12.918;2022-11-20T00:03:32;-6.70;1.00
7014;DHT22;3547;50.774;12.918;2022-11-20T00:06:05;-6.70;1.00
7014;DHT22;3547;50.774;12.918;2022-11-20T00:08:32;-6.70;1.00
7014;DHT22;3547;50.774;12.918;2022-11-20T00:11:05;-6.70;1.00
7014;DHT22;3547;50.774;12.918;2022-11-20T00:13:32;-6.60;1.00
7014;DHT22;3547;50.774;12.918;2022-11-20T00:16:00;-6.70;1.00
7014;DHT22;3547;50.774;12.918;2022-11-20T00:18:27;-6.80;1.00
7014;DHT22;3547;50.774;12.918;2022-11-20T00:20:53;-6.90;99.90
7014;DHT22;3547;50.774;12.918;2022-11-20T00:23:20;-6.90;99.90
7014;DHT22;3547;50.774;12.918;2022-11-20T00:25:46;-6.90;99.90
7014;DHT22;3547;50.774;12.918;2022-11-20T00:28:12;-6.90;99.90
7014;DHT22;3547;50.774;12.918;2022-11-20T00:30:38;-6.90;1.00
7014;DHT22;3547;50.774;12.918;2022-11-20T00:33:08;-7.00;99.90
7014;DHT22;3547;50.774;12.918;2022-11-20T00:35:34;-7.00;99.90
7014;DHT22;3547;50.774;12.918;2022-11-20T00:38:00;-7.00;99.90
7014;DHT22;3547;50.774;12.918;2022-11-20T00:40:26;-7.00;99.90
7014;DHT22;3547;50.774;12.918;2022-11-20T00:42:52;-6.90;99.90
7014;DHT22;3547;50.774;12.918;2022-11-20T00:45:18;-6.90;1.00
7014;DHT22;3547;50.774;12.918;2022-11-20T00:47:44;-6.90;1.00
7014;DHT22;3547;50.774;12.918;2022-11-20T00:50:11;-6.90;1.00
7014;DHT22;3547;50.774;12.918;2022-11-20T00:52:37;-6.90;1.00
7014;DHT22;3547;50.774;12.918;2022-11-20T00:55:03;-6.80;1.00
7014;DHT22;3547;50.774;12.918;2022-11-20T00:57:30;-6.80;1.00
7014;DHT22;3547;50.774;12.918;2022-11-20T00:59:56;-6.80;1.00
7014;DHT22;3547;50.774;12.918;2022-11-20T01:02:22;-6.80;1.00
7014;DHT22;3547;50.774;12.918;2022-11-20T01:04:48;-6.90;1.00
7014;DHT22;3547;50.774;12.918;2022-11-20T01:07:14;-6.90;1.00
7014;DHT22;3547;50.774;12.918;2022-11-20T01:09:40;-6.80;1.00
7014;DHT22;3547;50.774;12.918;2022-11-20T01:12:06;-6.80;1.00
7014;DHT22;3547;50.774;12.918;2022-11-20T01:14:32;-6.90;1.00
7014;DHT22;3547;50.774;12.918;2022-11-20T01:16:59;-6.80;1.00
7014;DHT22;3547;50.774;12.918;2022-11-20T01:19:25;-6.80;1.00
7014;DHT22;3547;50.774;12.918;2022-11-20T01:21:53;-6.90;1.00
7014;DHT22;3547;50.774;12.918;2022-11-20T01:24:21;-6.80;1.00
7014;DHT22;3547;50.774;12.918;2022-11-20T01:26:49;-6.90;99.90
7014;DHT22;3547;50.774;12.918;2022-11-20T01:29:21;-6.90;1.00
7014;DHT22;3547;50.774;12.918;2022-11-20T01:31:47;-6.80;1.00
7014;DHT22;3547;50.774;12.918;2022-11-20T01:34:16;-6.90;99.90
7014;DHT22;3547;50.774;12.918;2022-11-20T01:36:43;-6.90;1.00
7014;DHT22;3547;50.774;12.918;2022-11-20T01:39:21;-6.90;1.00
7014;DHT22;3547;50.774;12.918;2022-11-20T01:41:49;-6.90;1.00
7014;DHT22;3547;50.774;12.918;2022-11-20T01:45:00;-7.00;1.00
7014;DHT22;3547;50.774;12.918;2022-11-20T01:47:36;-7.00;1.00
7014;DHT22;3547;50.774;12.918;2022-11-20T01:52:39;-6.90;1.00
7014;DHT22;3547;50.774;12.918;2022-11-20T01:55:17;-6.90;1.00
7014;DHT22;3547;50.774;12.918;2022-11-20T01:57:44;-6.90;1.00
7014;DHT22;3547;50.774;12.918;2022-11-20T02:00:13;-6.90;1.00
7014;DHT22;3547;50.774;12.918;2022-11-20T02:02:57;-6.90;1.00
7014;DHT22;3547;50.774;12.918;2022-11-20T02:05:49;-6.90;1.00
7014;DHT22;3547;50.774;12.918;2022-11-20T02:08:13;-6.90;1.00
7014;DHT22;3547;50.774;12.918;2022-11-20T02:10:40;-6.90;1.00
7014;DHT22;3547;50.774;12.918;2022-11-20T02:13:06;-6.90;1.00
7014;DHT22;3547;50.774;12.918;2022-11-20T02:15:50;-7.00;1.00
7014;DHT22;3547;50.774;12.918;2022-11-20T02:18:19;-6.90;1.00
7014;DHT22;3547;50.774;12.918;2022-11-20T02:20:49;-6.90;1.00
7014;DHT22;3547;50.774;12.918;2022-11-20T02:23:39;-6.90;1.00
7014;DHT22;3547;50.774;12.918;2022-11-20T02:26:12;-6.90;1.00
7014;DHT22;3547;50.774;12.918;2022-11-20T02:28:39;-6.80;1.00
7014;DHT22;3547;50.774;12.918;2022-11-20T02:31:05;-6.80;1.00
7014;DHT22;3547;50.774;12.918;2022-11-20T02:33:31;-6.90;1.00
7014;DHT22;3547;50.774;12.918;2022-11-20T02:35:57;-6.80;1.00
7014;DHT22;3547;50.774;12.918;2022-11-20T02:38:24;-6.80;1.00
7014;DHT22;3547;50.774;12.918;2022-11-20T02:40:50;-6.80;1.00
7014;DHT22;3547;50.774;12.918;2022-11-20T02:43:16;-6.90;1.00
7014;DHT22;3547;50.774;12.918;2022-11-20T02:45:42;-6.90;1.00
7014;DHT22;3547;50.774;12.918;2022-11-20T02:48:08;-7.00;1.00
7014;DHT22;3547;50.774;12.918;2022-11-20T02:50:37;-7.00;1.00
7014;DHT22;3547;50.774;12.918;2022-11-20T02:53:04;-7.00;1.00
7014;DHT22;3547;50.774;12.918;2022-11-20T02:55:30;-7.00;99.90
7014;DHT22;3547;50.774;12.918;2022-11-20T02:57:56;-7.10;1.00
7014;DHT22;3547;50.774;12.918;2022-11-20T03:00:23;-7.10;1.00
7014;DHT22;3547;50.774;12.918;2022-11-20T03:02:49;-7.00;1.00
7014;DHT22;3547;50.774;12.918;2022-11-20T03:05:15;-7.00;99.90
7014;DHT22;3547;50.774;12.918;2022-11-20T03:07:42;-7.10;99.90
7014;DHT22;3547;50.774;12.918;2022-11-20T03:10:09;-7.10;99.90
7014;DHT22;3547;50.774;12.918;2022-11-20T03:12:35;-7.20;99.90
7014;DHT22;3547;50.774;12.918;2022-11-20T03:15:01;-7.20;99.90
7014;DHT22;3547;50.774;12.918;2022-11-20T03:17:27;-7.40;99.90
7014;DHT22;3547;50.774;12.918;2022-11-20T03:19:55;-7.30;99.90
7014;DHT22;3547;50.774;12.918;2022-11-20T03:22:21;-7.40;99.90
7014;DHT22;3547;50.774;12.918;2022-11-20T03:24:47;-7.50;99.90
7014;DHT22;3547;50.774;12.918;2022-11-20T03:27:13;-7.60;99.90
7014;DHT22;3547;50.774;12.918;2022-11-20T03:29:39;-7.60;99.90
7014;DHT22;3547;50.774;12.918;2022-11-20T03:32:05;-7.60;99.90
7014;DHT22;3547;50.774;12.918;2022-11-20T03:34:32;-7.70;99.90
7014;DHT22;3547;50.774;12.918;2022-11-20T03:36:58;-7.80;99.90
7014;DHT22;3547;50.774;12.918;2022-11-20T03:39:24;-7.70;99.90
7014;DHT22;3547;50.774;12.918;2022-11-20T03:41:50;-7.60;99.90
7014;DHT22;3547;50.774;12.918;2022-11-20T03:44:16;-7.50;99.90
7014;DHT22;3547;50.774;12.918;2022-11-20T03:46:42;-7.60;99.90
7014;DHT22;3547;50.774;12.918;2022-11-20T03:49:08;-7.70;99.90
7014;DHT22;3547;50.774;12.918;2022-11-20T03:51:36;-7.60;99.90
7014;DHT22;3547;50.774;12.918;2022-11-20T03:54:05;-7.70;99.90
7014;DHT22;3547;50.774;12.918;2022-11-20T03:56:34;-7.70;99.90
7014;DHT22;3547;50.774;12.918;2022-11-20T03:59:00;-7.70;99.90
7014;DHT22;3547;50.774;12.918;2022-11-20T04:01:32;-7.60;99.90
7014;DHT22;3547;50.774;12.918;2022-11-20T04:03:58;-7.70;99.90
7014;DHT22;3547;50.774;12.918;2022-11-20T04:06:27;-7.60;99.90
7014;DHT22;3547;50.774;12.918;2022-11-20T04:08:57;-7.70;99.90
7014;DHT22;3547;50.774;12.918;2022-11-20T04:11:26;-7.80;99.90
7014;DHT22;3547;50.774;12.918;2022-11-20T04:13:55;-7.70;99.90
7014;DHT22;3547;50.774;12.918;2022-11-20T04:16:22;-7.70;99.90
7014;DHT22;3547;50.774;12.918;2022-11-20T04:18:53;-7.60;99.90
7014;DHT22;3547;50.774;12.918;2022-11-20T04:21:19;-7.60;99.90
7014;DHT22;3547;50.774;12.918;2022-11-20T04:23:46;-7.60;99.90
7014;DHT22;3547;50.774;12.918;2022-11-20T04:26:12;-7.60;99.90
7014;DHT22;3547;50.774;12.918;2022-11-20T04:28:39;-7.50;99.90
7014;DHT22;3547;50.774;12.918;2022-11-20T04:31:08;-7.50;99.90
7014;DHT22;3547;50.774;12.918;2022-11-20T04:33:35;-7.50;99.90
7014;DHT22;3547;50.774;12.918;2022-11-20T04:36:06;-7.40;1.00
7014;DHT22;3547;50.774;12.918;2022-11-20T04:38:33;-7.40;1.00
7014;DHT22;3547;50.774;12.918;2022-11-20T04:41:02;-7.40;1.00
7014;DHT22;3547;50.774;12.918;2022-11-20T04:43:29;-7.40;1.00
7014;DHT22;3547;50.774;12.918;2022-11-20T04:45:56;-7.30;1.00
7014;DHT22;3547;50.774;12.918;2022-11-20T04:48:23;-7.30;1.00
7014;DHT22;3547;50.774;12.918;2022-11-20T04:50:50;-7.30;1.00
7014;DHT22;3547;50.774;12.918;2022-11-20T04:53:16;-7.30;1.00
7014;DHT22;3547;50.774;12.918;2022-11-20T04:55:42;-7.40;99.90
7014;DHT22;3547;50.774;12.918;2022-11-20T04:58:10;-7.40;99.90
7014;DHT22;3547;50.774;12.918;2022-11-20T05:00:37;-7.40;99.90
7014;DHT22;3547;50.774;12.918;2022-11-20T05:03:03;-7.50;99.90
7014;DHT22;3547;50.774;12.918;2022-11-20T05:05:30;-7.60;99.90
7014;DHT22;3547;50.774;12.918;2022-11-20T05:07:57;-7.60;99.90
7014;DHT22;3547;50.774;12.918;2022-11-20T05:10:24;-7.50;99.90
7014;DHT22;3547;50.774;12.918;2022-11-20T05:12:51;-7.60;99.90
7014;DHT22;3547;50.774;12.918;2022-11-20T05:15:17;-7.70;99.90
7014;DHT22;3547;50.774;12.918;2022-11-20T05:17:50;-7.70;99.90
7014;DHT22;3547;50.774;12.918;2022-11-20T05:20:17;-7.80;99.90
7014;DHT22;3547;50.774;12.918;2022-11-20T05:22:44;-7.70;99.90
7014;DHT22;3547;50.774;12.918;2022-11-20T05:25:10;-7.80;99.90
7014;DHT22;3547;50.774;12.918;2022-11-20T05:27:37;-7.90;99.90
7014;DHT22;3547;50.774;12.918;2022-11-20T05:30:06;-8.00;99.90
7014;DHT22;3547;50.774;12.918;2022-11-20T05:32:33;-8.00;99.90
7014;DHT22;3547;50.774;12.918;2022-11-20T05:34:59;-8.10;99.90
7014;DHT22;3547;50.774;12.918;2022-11-20T05:37:25;-8.10;99.90
7014;DHT22;3547;50.774;12.918;2022-11-20T05:39:51;-8.00;99.90
7014;DHT22;3547;50.774;12.918;2022-11-20T05:42:17;-8.00;99.90
7014;DHT22;3547;50.774;12.918;2022-11-20T05:45:03;-7.90;99.90
7014;DHT22;3547;50.774;12.918;2022-11-20T05:47:33;-8.00;99.90
7014;DHT22;3547;50.774;12.918;2022-11-20T05:50:00;-7.90;99.90
7014;DHT22;3547;50.774;12.918;2022-11-20T05:52:30;-7.90;99.90
7014;DHT22;3547;50.774;12.918;2022-11-20T05:54:56;-8.00;99.90
7014;DHT22;3547;50.774;12.918;2022-11-20T05:57:23;-8.00;99.90
7014;DHT22;3547;50.774;12.918;2022-11-20T05:59:49;-7.90;99.90
7014;DHT22;3547;50.774;12.918;2022-11-20T06:02:16;-7.80;99.90
7014;DHT22;3547;50.774;12.918;2022-11-20T06:04:42;-7.90;99.90
7014;DHT22;3547;50.774;12.918;2022-11-20T06:07:08;-7.90;99.90
7014;DHT22;3547;50.774;12.918;2022-11-20T06:09:34;-8.00;99.90
7014;DHT22;3547;50.774;12.918;2022-11-20T06:12:00;-8.00;99.90
7014;DHT22;3547;50.774;12.918;2022-11-20T06:14:26;-8.00;99.90
7014;DHT22;3547;50.774;12.918;2022-11-20T06:16:53;-8.00;99.90
7014;DHT22;3547;50.774;12.918;2022-11-20T06:19:19;-8.00;99.90
7014;DHT22;3547;50.774;12.918;2022-11-20T06:21:45;-8.10;99.90
7014;DHT22;3547;50.774;12.918;2022-11-20T06:24:13;-8.20;99.90
7014;DHT22;3547;50.774;12.918;2022-11-20T06:26:39;-8.20;99.90
7014;DHT22;3547;50.774;12.918;2022-11-20T06:29:05;-8.20;99.90
7014;DHT22;3547;50.774;12.918;2022-11-20T06:31:31;-8.20;99.90
7014;DHT22;3547;50.774;12.918;2022-11-20T06:34:06;-8.20;99.90
7014;DHT22;3547;50.774;12.918;2022-11-20T06:36:33;-8.30;99.90
7014;DHT22;3547;50.774;12.918;2022-11-20T06:38:59;-8.40;99.90
7014;DHT22;3547;50.774;12.918;2022-11-20T06:41:26;-8.40;99.90
7014;DHT22;3547;50.774;12.918;2022-11-20T06:43:53;-8.30;99.90
7014;DHT22;3547;50.774;12.918;2022-11-20T06:46:20;-8.30;99.90
7014;DHT22;3547;50.774;12.918;2022-11-20T06:48:49;-8.30;99.90
7014;DHT22;3547;50.774;12.918;2022-11-20T06:51:16;-8.40;99.90
7014;DHT22;3547;50.774;12.918;2022-11-20T06:53:42;-8.40;99.90
7014;DHT22;3547;50.774;12.918;2022-11-20T06:56:09;-8.40;99.90
7014;DHT22;3547;50.774;12.918;2022-11-20T06:58:36;-8.30;99.90
7014;DHT22;3547;50.774;12.918;2022-11-20T07:01:06;-8.30;99.90
7014;DHT22;3547;50.774;12.918;2022-11-20T07:03:33;-8.40;99.90
7014;DHT22;3547;50.774;12.918;2022-11-20T07:06:00;-8.40;99.90
7014;DHT22;3547;50.774;12.918;2022-11-20T07:08:27;-8.40;99.90
7014;DHT22;3547;50.774;12.918;2022-11-20T07:10:57;-8.40;99.90
7014;DHT22;3547;50.774;12.918;2022-11-20T07:13:26;-8.30;99.90
7014;DHT22;3547;50.774;12.918;2022-11-20T07:15:53;-8.30;99.90
7014;DHT22;3547;50.774;12.918;2022-11-20T07:18:19;-8.30;99.90
7014;DHT22;3547;50.774;12.918;2022-11-20T07:20:45;-8.20;99.90
7014;DHT22;3547;50.774;12.918;2022-11-20T07:23:11;-8.10;99.90
7014;DHT22;3547;50.774;12.918;2022-11-20T07:25:37;-8.10;99.90
7014;DHT22;3547;50.774;12.918;2022-11-20T07:28:03;-8.00;99.90
7014;DHT22;3547;50.774;12.918;2022-11-20T07:30:30;-8.00;99.90
7014;DHT22;3547;50.774;12.918;2022-11-20T07:32:56;-8.00;99.90
7014;DHT22;3547;50.774;12.918;2022-11-20T07:35:24;-7.90;99.90
7014;DHT22;3547;50.774;12.918;2022-11-20T07:37:50;-7.90;99.90
7014;DHT22;3547;50.774;12.918;2022-11-20T07:40:18;-7.90;99.90
7014;DHT22;3547;50.774;12.918;2022-11-20T07:42:54;-7.80;99.90
7014;DHT22;3547;50.774;12.918;2022-11-20T07:45:23;-7.70;99.90
7014;DHT22;3547;50.774;12.918;2022-11-20T07:47:51;-7.70;99.90
7014;DHT22;3547;50.774;12.918;2022-11-20T07:50:18;-7.60;99.90
7014;DHT22;3547;50.774;12.918;2022-11-20T07:52:45;-7.40;99.90
7014;DHT22;3547;50.774;12.918;2022-11-20T07:55:11;-7.40;1.00
7014;DHT22;3547;50.774;12.918;2022-11-20T07:57:38;-7.20;1.00
7014;DHT22;3547;50.774;12.918;2022-11-20T08:00:06;-7.00;1.00
7014;DHT22;3547;50.774;12.918;2022-11-20T08:02:37;-6.70;1.00
7014;DHT22;3547;50.774;12.918;2022-11-20T08:05:05;-6.50;1.00
7014;DHT22;3547;50.774;12.918;2022-11-20T08:07:38;-6.30;1.00
7014;DHT22;3547;50.774;12.918;2022-11-20T08:10:06;-6.20;1.00
7014;DHT22;3547;50.774;12.918;2022-11-20T08:12:32;-6.00;1.00
7014;DHT22;3547;50.774;12.918;2022-11-20T08:15:17;-5.80;1.00
7014;DHT22;3547;50.774;12.918;2022-11-20T08:17:43;-5.50;1.00
7014;DHT22;3547;50.774;12.918;2022-11-20T08:20:10;-5.40;1.00
7014;DHT22;3547;50.774;12.918;2022-11-20T08:22:36;-5.20;1.00
7014;DHT22;3547;50.774;12.918;2022-11-20T08:25:03;-5.00;1.00
7014;DHT22;3547;50.774;12.918;2022-11-20T08:27:29;-4.90;1.00
7014;DHT22;3547;50.774;12.918;2022-11-20T08:29:57;-4.90;1.00
7014;DHT22;3547;50.774;12.918;2022-11-20T08:32:23;-4.70;1.00
7014;DHT22;3547;50.774;12.918;2022-11-20T08:34:49;-4.50;1.00
7014;DHT22;3547;50.774;12.918;2022-11-20T08:37:15;-4.40;1.00
7014;DHT22;3547;50.774;12.918;2022-11-20T08:39:41;-4.20;1.00
7014;DHT22;3547;50.774;12.918;2022-11-20T08:42:07;-4.20;1.00
7014;DHT22;3547;50.774;12.918;2022-11-20T08:44:34;-4.10;1.00
7014;DHT22;3547;50.774;12.918;2022-11-20T08:47:00;-3.90;1.00
7014;DHT22;3547;50.774;12.918;2022-11-20T08:49:26;-3.80;1.00
7014;DHT22;3547;50.774;12.918;2022-11-20T08:51:52;-3.60;1.00
7014;DHT22;3547;50.774;12.918;2022-11-20T08:54:20;-3.40;1.00
7014;DHT22;3547;50.774;12.918;2022-11-20T08:56:48;-3.20;1.00
7014;DHT22;3547;50.774;12.918;2022-11-20T08:59:14;-3.10;1.00
7014;DHT22;3547;50.774;12.918;2022-11-20T09:01:40;-2.90;1.00
7014;DHT22;3547;50.774;12.918;2022-11-20T09:04:06;-2.80;1.00
7014;DHT22;3547;50.774;12.918;2022-11-20T09:06:32;-2.80;1.00
7014;DHT22;3547;50.774;12.918;2022-11-20T09:08:58;-2.70;1.00
7014;DHT22;3547;50.774;12.918;2022-11-20T09:11:24;-2.60;1.00
7014;DHT22;3547;50.774;12.918;2022-11-20T09:13:51;-2.60;1.00
7014;DHT22;3547;50.774;12.918;2022-11-20T09:16:17;-2.50;1.00
7014;DHT22;3547;50.774;12.918;2022-11-20T09:18:43;-2.40;1.00
7014;DHT22;3547;50.774;12.918;2022-11-20T09:21:11;-2.30;1.00
7014;DHT22;3547;50.774;12.918;2022-11-20T09:23:38;-2.20;1.00
7014;DHT22;3547;50.774;12.918;2022-11-20T09:26:05;-2.10;1.00
7014;DHT22;3547;50.774;12.918;2022-11-20T09:28:32;-2.10;1.00
7014;DHT22;3547;50.774;12.918;2022-11-20T09:30:59;-2.00;1.00
7014;DHT22;3547;50.774;12.918;2022-11-20T09:33:25;-1.90;1.00
7014;DHT22;3547;50.774;12.918;2022-11-20T09:35:51;-1.80;1.00
7014;DHT22;3547;50.774;12.918;2022-11-20T09:38:18;-1.80;1.00
7014;DHT22;3547;50.774;12.918;2022-11-20T09:40:49;-1.80;1.00
7014;DHT22;3547;50.774;12.918;2022-11-20T09:46:47;-1.60;1.00
7014;DHT22;3547;50.774;12.918;2022-11-20T09:52:04;-1.30;1.00
7014;DHT22;3547;50.774;12.918;2022-11-20T09:54:39;-1.10;1.00
7014;DHT22;3547;50.774;12.918;2022-11-20T09:57:17;-1.10;1.00
7014;DHT22;3547;50.774;12.918;2022-11-20T09:59:56;-1.00;1.00
7014;DHT22;3547;50.774;12.918;2022-11-20T10:05:19;-0.90;1.00
7014;DHT22;3547;50.774;12.918;2022-11-20T10:10:54;-0.80;1.00
7014;DHT22;3547;50.774;12.918;2022-11-20T10:21:55;-0.60;1.00
7014;DHT22;3547;50.774;12.918;2022-11-20T10:30:14;-0.40;1.00
7014;DHT22;3547;50.774;12.918;2022-11-20T10:32:46;-0.40;1.00
7014;DHT22;3547;50.774;12.918;2022-11-20T10:35:24;-0.40;1.00
7014;DHT22;3547;50.774;12.918;2022-11-20T10:38:02;-0.40;1.00
7014;DHT22;3547;50.774;12.918;2022-11-20T10:40:52;-0.30;1.00
7014;DHT22;3547;50.774;12.918;2022-11-20T10:43:27;-0.60;1.00
7014;DHT22;3547;50.774;12.918;2022-11-20T10:46:00;-0.50;1.00
7014;DHT22;3547;50.774;12.918;2022-11-20T10:48:28;-0.60;1.00
7014;DHT22;3547;50.774;12.918;2022-11-20T10:54:06;-0.30;1.00
7014;DHT22;3547;50.774;12.918;2022-11-20T10:56:53;-0.20;1.00
7014;DHT22;3547;50.774;12.918;2022-11-20T10:59:45;0.00;1.00
7014;DHT22;3547;50.774;12.918;2022-11-20T11:02:19;0.00;1.00
7014;DHT22;3547;50.774;12.918;2022-11-20T11:04:53;0.10;1.00
7014;DHT22;3547;50.774;12.918;2022-11-20T11:07:30;0.10;1.00
7014;DHT22;3547;50.774;12.918;2022-11-20T11:09:59;0.20;1.00
7014;DHT22;3547;50.774;12.918;2022-11-20T11:12:27;0.10;1.00
7014;DHT22;3547;50.774;12.918;2022-11-20T11:14:57;0.10;1.00
7014;DHT22;3547;50.774;12.918;2022-11-20T11:17:30;0.20;1.00
7014;DHT22;3547;50.774;12.918;2022-11-20T11:20:03;0.30;1.00
7014;DHT22;3547;50.774;12.918;2022-11-20T11:22:32;0.30;1.00
7014;DHT22;3547;50.774;12.918;2022-11-20T11:24:58;0.40;1.00
7014;DHT22;3547;50.774;12.918;2022-11-20T11:27:25;0.50;1.00
7014;DHT22;3547;50.774;12.918;2022-11-20T11:30:23;0.50;1.00
7014;DHT22;3547;50.774;12.918;2022-11-20T11:32:47;0.30;1.00
7014;DHT22;3547;50.774;12.918;2022-11-20T11:37:46;0.30;1.00
7014;DHT22;3547;50.774;12.918;2022-11-20T11:40:15;0.50;1.00
7014;DHT22;3547;50.774;12.918;2022-11-20T11:42:59;0.60;1.00
7014;DHT22;3547;50.774;12.918;2022-11-20T11:45:27;0.60;1.00
7014;DHT22;3547;50.774;12.918;2022-11-20T11:47:56;0.60;1.00
7014;DHT22;3547;50.774;12.918;2022-11-20T11:50:29;0.80;1.00
7014;DHT22;3547;50.774;12.918;2022-11-20T11:55:30;0.80;1.00
7014;DHT22;3547;50.774;12.918;2022-11-20T12:03:40;0.70;1.00
7014;DHT22;3547;50.774;12.918;2022-11-20T12:06:14;0.70;1.00
7014;DHT22;3547;50.774;12.918;2022-11-20T12:11:14;0.40;1.00
7014;DHT22;3547;50.774;12.918;2022-11-20T12:13:55;0.30;1.00
7014;DHT22;3547;50.774;12.918;2022-11-20T12:16:27;0.30;1.00
7014;DHT22;3547;50.774;12.918;2022-11-20T12:18:54;0.40;1.00
7014;DHT22;3547;50.774;12.918;2022-11-20T12:21:32;0.30;1.00
7014;DHT22;3547;50.774;12.918;2022-11-20T12:27:02;0.40;1.00
7014;DHT22;3547;50.774;12.918;2022-11-20T12:32:06;0.60;1.00
7014;DHT22;3547;50.774;12.918;2022-11-20T12:39:53;0.50;1.00
7014;DHT22;3547;50.774;12.918;2022-11-20T12:59:12;0.50;1.00
7014;DHT22;3547;50.774;12.918;2022-11-20T13:01:49;0.50;1.00
7014;DHT22;3547;50.774;12.918;2022-11-20T13:06:58;0.70;1.00
7014;DHT22;3547;50.774;12.918;2022-11-20T13:09:25;0.80;1.00
7014;DHT22;3547;50.774;12.918;2022-11-20T13:12:11;0.80;1.00
7014;DHT22;3547;50.774;12.918;2022-11-20T13:14:47;0.70;1.00
7014;DHT22;3547;50.774;12.918;2022-11-20T13:19:56;0.70;1.00
7014;DHT22;3547;50.774;12.918;2022-11-20T13:22:26;0.80;1.00
7014;DHT22;3547;50.774;12.918;2022-11-20T13:24:52;0.80;1.00
7014;DHT22;3547;50.774;12.918;2022-11-20T13:27:21;0.90;1.00
7014;DHT22;3547;50.774;12.918;2022-11-20T13:30:14;1.00;1.00
7014;DHT22;3547;50.774;12.918;2022-11-20T13:33:22;0.90;1.00
7014;DHT22;3547;50.774;12.918;2022-11-20T13:36:03;1.00;1.00
7014;DHT22;3547;50.774;12.918;2022-11-20T13:38:46;1.00;1.00
7014;DHT22;3547;50.774;12.918;2022-11-20T13:44:14;1.00;1.00
7014;DHT22;3547;50.774;12.918;2022-11-20T13:46:46;1.10;1.00
7014;DHT22;3547;50.774;12.918;2022-11-20T13:49:29;1.10;1.00
7014;DHT22;3547;50.774;12.918;2022-11-20T14:00:17;0.80;1.00
7014;DHT22;3547;50.774;12.918;2022-11-20T14:03:16;0.90;1.00
7014;DHT22;3547;50.774;12.918;2022-11-20T14:05:45;0.90;1.00
7014;DHT22;3547;50.774;12.918;2022-11-20T14:08:45;1.00;1.00
7014;DHT22;3547;50.774;12.918;2022-11-20T14:14:01;0.90;1.00
7014;DHT22;3547;50.774;12.918;2022-11-20T14:16:34;0.80;1.00
7014;DHT22;3547;50.774;12.918;2022-11-20T14:21:51;0.80;1.00
7014;DHT22;3547;50.774;12.918;2022-11-20T14:24:22;0.80;1.00
7014;DHT22;3547;50.774;12.918;2022-11-20T14:26:50;0.80;1.00
7014;DHT22;3547;50.774;12.918;2022-11-20T14:29:19;0.80;1.00
7014;DHT22;3547;50.774;12.918;2022-11-20T14:31:47;0.80;1.00
7014;DHT22;3547;50.774;12.918;2022-11-20T14:34:23;0.80;1.00
7014;DHT22;3547;50.774;12.918;2022-11-20T14:36:53;0.70;1.00
7014;DHT22;3547;50.774;12.918;2022-11-20T14:39:22;0.70;1.00
7014;DHT22;3547;50.774;12.918;2022-11-20T14:41:54;0.70;1.00
7014;DHT22;3547;50.774;12.918;2022-11-20T14:44:33;0.70;1.00
7014;DHT22;3547;50.774;12.918;2022-11-20T14:47:02;0.70;1.00
7014;DHT22;3547;50.774;12.918;2022-11-20T14:49:30;0.60;1.00
7014;DHT22;3547;50.774;12.918;2022-11-20T14:52:09;0.60;1.00
7014;DHT22;3547;50.774;12.918;2022-11-20T14:54:44;0.50;1.00
7014;DHT22;3547;50.774;12.918;2022-11-20T14:59:49;0.40;1.00
7014;DHT22;3547;50.774;12.918;2022-11-20T15:02:16;0.30;1.00
7014;DHT22;3547;50.774;12.918;2022-11-20T15:04:56;0.20;1.00
7014;DHT22;3547;50.774;12.918;2022-11-20T15:07:33;0.10;1.00
7014;DHT22;3547;50.774;12.918;2022-11-20T15:10:10;0.10;1.00
7014;DHT22;3547;50.774;12.918;2022-11-20T15:12:45;0.10;1.00
7014;DHT22;3547;50.774;12.918;2022-11-20T15:15:16;-0.10;1.00
7014;DHT22;3547;50.774;12.918;2022-11-20T15:17:43;0.00;1.00
7014;DHT22;3547;50.774;12.918;2022-11-20T15:20:17;-0.10;1.00
7014;DHT22;3547;50.774;12.918;2022-11-20T15:22:43;0.00;1.00
7014;DHT22;3547;50.774;12.918;2022-11-20T15:25:14;-0.10;1.00
7014;DHT22;3547;50.774;12.918;2022-11-20T15:27:41;-0.10;1.00
7014;DHT22;3547;50.774;12.918;2022-11-20T15:30:15;-0.20;1.00
7014;DHT22;3547;50.774;12.918;2022-11-20T15:32:43;-0.20;1.00
7014;DHT22;3547;50.774;12.918;2022-11-20T15:35:14;-0.30;1.00
7014;DHT22;3547;50.774;12.918;2022-11-20T15:37:41;-0.40;1.00
7014;DHT22;3547;50.774;12.918;2022-11-20T15:40:08;-0.40;1.00
7014;DHT22;3547;50.774;12.918;2022-11-20T15:42:35;-0.40;1.00
7014;DHT22;3547;50.774;12.918;2022-11-20T15:45:01;-0.50;1.00
7014;DHT22;3547;50.774;12.918;2022-11-20T15:47:32;-0.50;1.00
7014;DHT22;3547;50.774;12.918;2022-11-20T15:49:59;-0.60;1.00
7014;DHT22;3547;50.774;12.918;2022-11-20T15:52:26;-0.60;1.00
7014;DHT22;3547;50.774;12.918;2022-11-20T15:54:52;-0.80;1.00
7014;DHT22;3547;50.774;12.918;2022-11-20T15:57:18;-0.70;1.00
7014;DHT22;3547;50.774;12.918;2022-11-20T15:59:44;-0.80;1.00
7014;DHT22;3547;50.774;12.918;2022-11-20T16:02:11;-0.90;1.00
7014;DHT22;3547;50.774;12.918;2022-11-20T16:04:38;-0.90;1.00
7014;DHT22;3547;50.774;12.918;2022-11-20T16:07:04;-0.80;1.00
7014;DHT22;3547;50.774;12.918;2022-11-20T16:09:30;-0.90;1.00
7014;DHT22;3547;50.774;12.918;2022-11-20T16:11:57;-1.00;1.00
7014;DHT22;3547;50.774;12.918;2022-11-20T16:14:26;-0.90;1.00
7014;DHT22;3547;50.774;12.918;2022-11-20T16:17:12;-0.90;1.00
7014;DHT22;3547;50.774;12.918;2022-11-20T16:19:38;-1.00;1.00
7014;DHT22;3547;50.774;12.918;2022-11-20T16:22:04;-1.10;1.00
7014;DHT22;3547;50.774;12.918;2022-11-20T16:24:30;-1.10;1.00
7014;DHT22;3547;50.774;12.918;2022-11-20T16:26:57;-1.20;1.00
7014;DHT22;3547;50.774;12.918;2022-11-20T16:29:23;-1.20;1.00
7014;DHT22;3547;50.774;12.918;2022-11-20T16:31:49;-1.20;1.00
7014;DHT22;3547;50.774;12.918;2022-11-20T16:34:16;-1.20;1.00
7014;DHT22;3547;50.774;12.918;2022-11-20T16:36:43;-1.30;1.00
7014;DHT22;3547;50.774;12.918;2022-11-20T16:39:11;-1.40;1.00
7014;DHT22;3547;50.774;12.918;2022-11-20T16:41:37;-1.40;1.00
7014;DHT22;3547;50.774;12.918;2022-11-20T16:44:08;-1.40;1.00
7014;DHT22;3547;50.774;12.918;2022-11-20T16:46:35;-1.40;1.00
7014;DHT22;3547;50.774;12.918;2022-11-20T16:49:04;-1.50;1.00
7014;DHT22;3547;50.774;12.918;2022-11-20T16:51:33;-1.50;1.00
7014;DHT22;3547;50.774;12.918;2022-11-20T16:54:05;-1.50;1.00
7014;DHT22;3547;50.774;12.918;2022-11-20T16:56:32;-1.50;1.00
7014;DHT22;3547;50.774;12.918;2022-11-20T16:58:59;-1.60;1.00
7014;DHT22;3547;50.774;12.918;2022-11-20T17:01:26;-1.60;1.00
7014;DHT22;3547;50.774;12.918;2022-11-20T17:04:04;-1.60;1.00
7014;DHT22;3547;50.774;12.918;2022-11-20T17:06:36;-1.80;1.00
7014;DHT22;3547;50.774;12.918;2022-11-20T17:09:03;-1.70;1.00
7014;DHT22;3547;50.774;12.918;2022-11-20T17:11:30;-1.70;1.00
7014;DHT22;3547;50.774;12.918;2022-11-20T17:13:58;-1.90;1.00
7014;DHT22;3547;50.774;12.918;2022-11-20T17:16:32;-1.90;1.00
7014;DHT22;3547;50.774;12.918;2022-11-20T17:19:03;-1.80;1.00
7014;DHT22;3547;50.774;12.918;2022-11-20T17:21:31;-1.90;1.00
7014;DHT22;3547;50.774;12.918;2022-11-20T17:24:03;-1.80;1.00
7014;DHT22;3547;50.774;12.918;2022-11-20T17:26:29;-1.80;1.00
7014;DHT22;3547;50.774;12.918;2022-11-20T17:29:05;-1.90;1.00
7014;DHT22;3547;50.774;12.918;2022-11-20T17:31:33;-1.90;1.00
7014;DHT22;3547;50.774;12.918;2022-11-20T17:34:00;-2.00;1.00
7014;DHT22;3547;50.774;12.918;2022-11-20T17:36:27;-2.00;1.00
7014;DHT22;3547;50.774;12.918;2022-11-20T17:38:54;-2.00;1.00
7014;DHT22;3547;50.774;12.918;2022-11-20T17:41:21;-2.00;1.00
7014;DHT22;3547;50.774;12.918;2022-11-20T17:43:48;-2.10;1.00
7014;DHT22;3547;50.774;12.918;2022-11-20T17:46:17;-2.20;1.00
7014;DHT22;3547;50.774;12.918;2022-11-20T17:48:45;-2.20;1.00
7014;DHT22;3547;50.774;12.918;2022-11-20T17:51:20;-2.20;1.00
7014;DHT22;3547;50.774;12.918;2022-11-20T17:53:49;-2.20;1.00